sensor_id;sensor_type;location;lat;lon;timestamp;P1;durP1;ratioP1;P2;durP2;ratioP2
27642;SDS011;15053;48.618;10.024;2023-05-17T00:01:46;6.60;;;2.80;;
27642;SDS011;15053;48.618;10.024;2023-05-17T00:04:12;8.52;;;2.22;;
27642;SDS011;15053;48.618;10.024;2023-05-17T00:06:39;4.13;;;2.05;;
27642;SDS011;15053;48.618;10.024;2023-05-17T00:09:06;4.97;;;2.05;;
27642;SDS011;15053;48.618;10.024;2023-05-17T00:11:32;4.30;;;1.50;;
27642;SDS011;15053;48.618;10.024;2023-05-17T00:13:59;4.13;;;2.00;;
27642;SDS011;15053;48.618;10.024;2023-05-17T00:16:26;3.55;;;1.70;;
27642;SDS011;15053;48.618;10.024;2023-05-17T00:18:53;5.63;;;1.50;;
27642;SDS011;15053;48.618;10.024;2023-05-17T00:21:20;6.47;;;1.75;;
27642;SDS011;15053;48.618;10.024;2023-05-17T00:23:46;4.20;;;1.42;;
27642;SDS011;15053;48.618;10.024;2023-05-17T00:26:13;7.75;;;2.05;;
27642;SDS011;15053;48.618;10.024;2023-05-17T00:28:40;7.28;;;1.63;;
27642;SDS011;15053;48.618;10.024;2023-05-17T00:31:06;4.90;;;1.60;;
27642;SDS011;15053;48.618;10.024;2023-05-17T00:33:33;8.23;;;2.20;;
27642;SDS011;15053;48.618;10.024;2023-05-17T00:36:00;5.60;;;1.85;;
27642;SDS011;15053;48.618;10.024;2023-05-17T00:38:26;4.03;;;1.40;;
27642;SDS011;15053;48.618;10.024;2023-05-17T00:40:53;7.50;;;2.05;;
27642;SDS011;15053;48.618;10.024;2023-05-17T00:43:19;6.70;;;2.38;;
27642;SDS011;15053;48.618;10.024;2023-05-17T00:45:46;14.30;;;4.28;;
27642;SDS011;15053;48.618;10.024;2023-05-17T00:48:14;15.55;;;3.90;;
27642;SDS011;15053;48.618;10.024;2023-05-17T00:50:41;14.32;;;4.00;;
27642;SDS011;15053;48.618;10.024;2023-05-17T00:53:08;20.90;;;5.07;;
27642;SDS011;15053;48.618;10.024;2023-05-17T00:55:36;13.80;;;4.05;;
27642;SDS011;15053;48.618;10.024;2023-05-17T00:58:03;17.92;;;5.03;;
27642;SDS011;15053;48.618;10.024;2023-05-17T01:00:29;9.55;;;3.58;;
27642;SDS011;15053;48.618;10.024;2023-05-17T01:02:56;10.52;;;2.47;;
27642;SDS011;15053;48.618;10.024;2023-05-17T01:05:23;9.18;;;1.73;;
27642;SDS011;15053;48.618;10.024;2023-05-17T01:07:49;4.80;;;2.30;;
27642;SDS011;15053;48.618;10.024;2023-05-17T01:10:16;9.32;;;2.15;;
27642;SDS011;15053;48.618;10.024;2023-05-17T01:12:53;7.40;;;1.60;;
27642;SDS011;15053;48.618;10.024;2023-05-17T01:15:30;4.25;;;1.70;;
27642;SDS011;15053;48.618;10.024;2023-05-17T01:20:53;4.93;;;1.50;;
27642;SDS011;15053;48.618;10.024;2023-05-17T01:23:30;11.23;;;3.40;;
27642;SDS011;15053;48.618;10.024;2023-05-17T01:26:07;6.75;;;2.55;;
27642;SDS011;15053;48.618;10.024;2023-05-17T01:28:39;13.18;;;3.25;;
27642;SDS011;15053;48.618;10.024;2023-05-17T01:31:08;9.98;;;3.65;;
27642;SDS011;15053;48.618;10.024;2023-05-17T01:33:36;5.68;;;2.05;;
27642;SDS011;15053;48.618;10.024;2023-05-17T01:36:03;5.45;;;1.55;;
27642;SDS011;15053;48.618;10.024;2023-05-17T01:38:30;5.90;;;1.95;;
27642;SDS011;15053;48.618;10.024;2023-05-17T01:41:00;6.35;;;1.92;;
27642;SDS011;15053;48.618;10.024;2023-05-17T01:51:35;5.53;;;2.20;;
27642;SDS011;15053;48.618;10.024;2023-05-17T01:54:10;9.73;;;2.90;;
27642;SDS011;15053;48.618;10.024;2023-05-17T01:56:42;11.10;;;3.72;;
27642;SDS011;15053;48.618;10.024;2023-05-17T01:59:14;11.60;;;3.15;;
27642;SDS011;15053;48.618;10.024;2023-05-17T02:01:47;18.92;;;4.50;;
27642;SDS011;15053;48.618;10.024;2023-05-17T02:04:14;10.90;;;3.35;;
27642;SDS011;15053;48.618;10.024;2023-05-17T02:06:41;9.25;;;2.38;;
27642;SDS011;15053;48.618;10.024;2023-05-17T02:09:07;5.75;;;2.22;;
27642;SDS011;15053;48.618;10.024;2023-05-17T02:11:34;4.10;;;1.70;;
27642;SDS011;15053;48.618;10.024;2023-05-17T02:14:01;6.18;;;1.52;;
27642;SDS011;15053;48.618;10.024;2023-05-17T02:16:27;5.65;;;1.40;;
27642;SDS011;15053;48.618;10.024;2023-05-17T02:18:54;4.93;;;1.65;;
27642;SDS011;15053;48.618;10.024;2023-05-17T02:21:21;2.35;;;1.55;;
27642;SDS011;15053;48.618;10.024;2023-05-17T02:23:47;3.22;;;1.50;;
27642;SDS011;15053;48.618;10.024;2023-05-17T02:26:17;9.57;;;1.70;;
27642;SDS011;15053;48.618;10.024;2023-05-17T02:28:44;5.65;;;1.50;;
27642;SDS011;15053;48.618;10.024;2023-05-17T02:31:10;3.38;;;1.67;;
27642;SDS011;15053;48.618;10.024;2023-05-17T02:33:37;4.82;;;1.52;;
27642;SDS011;15053;48.618;10.024;2023-05-17T02:36:03;6.30;;;1.85;;
27642;SDS011;15053;48.618;10.024;2023-05-17T02:38:30;6.35;;;1.70;;
27642;SDS011;15053;48.618;10.024;2023-05-17T02:40:57;6.95;;;1.80;;
27642;SDS011;15053;48.618;10.024;2023-05-17T02:43:23;3.63;;;1.60;;
27642;SDS011;15053;48.618;10.024;2023-05-17T02:45:50;5.97;;;1.85;;
27642;SDS011;15053;48.618;10.024;2023-05-17T02:48:16;5.90;;;1.75;;
27642;SDS011;15053;48.618;10.024;2023-05-17T02:50:43;7.28;;;1.63;;
27642;SDS011;15053;48.618;10.024;2023-05-17T02:53:10;7.93;;;2.35;;
27642;SDS011;15053;48.618;10.024;2023-05-17T02:55:37;8.95;;;1.70;;
27642;SDS011;15053;48.618;10.024;2023-05-17T02:58:04;6.07;;;1.67;;
27642;SDS011;15053;48.618;10.024;2023-05-17T03:00:31;5.30;;;1.50;;
27642;SDS011;15053;48.618;10.024;2023-05-17T03:02:58;3.40;;;1.63;;
27642;SDS011;15053;48.618;10.024;2023-05-17T03:05:25;5.78;;;1.52;;
27642;SDS011;15053;48.618;10.024;2023-05-17T03:07:52;7.72;;;1.90;;
27642;SDS011;15053;48.618;10.024;2023-05-17T03:10:18;3.95;;;1.70;;
27642;SDS011;15053;48.618;10.024;2023-05-17T03:12:46;5.50;;;1.85;;
27642;SDS011;15053;48.618;10.024;2023-05-17T03:15:16;3.90;;;1.55;;
27642;SDS011;15053;48.618;10.024;2023-05-17T03:17:44;3.33;;;1.85;;
27642;SDS011;15053;48.618;10.024;2023-05-17T03:20:11;7.07;;;1.70;;
27642;SDS011;15053;48.618;10.024;2023-05-17T03:22:38;5.05;;;1.75;;
27642;SDS011;15053;48.618;10.024;2023-05-17T03:25:04;8.45;;;2.97;;
27642;SDS011;15053;48.618;10.024;2023-05-17T03:27:32;6.80;;;1.92;;
27642;SDS011;15053;48.618;10.024;2023-05-17T03:29:59;6.93;;;1.75;;
27642;SDS011;15053;48.618;10.024;2023-05-17T03:32:27;6.03;;;2.03;;
27642;SDS011;15053;48.618;10.024;2023-05-17T03:34:54;3.53;;;1.70;;
27642;SDS011;15053;48.618;10.024;2023-05-17T03:37:21;6.07;;;1.98;;
27642;SDS011;15053;48.618;10.024;2023-05-17T03:39:47;10.68;;;2.33;;
27642;SDS011;15053;48.618;10.024;2023-05-17T03:42:14;8.98;;;2.60;;
27642;SDS011;15053;48.618;10.024;2023-05-17T03:44:40;9.15;;;2.53;;
27642;SDS011;15053;48.618;10.024;2023-05-17T03:47:07;3.83;;;1.95;;
27642;SDS011;15053;48.618;10.024;2023-05-17T03:49:34;7.68;;;1.98;;
27642;SDS011;15053;48.618;10.024;2023-05-17T03:52:01;6.22;;;1.98;;
27642;SDS011;15053;48.618;10.024;2023-05-17T03:54:28;5.70;;;1.63;;
27642;SDS011;15053;48.618;10.024;2023-05-17T03:56:55;3.45;;;1.40;;
27642;SDS011;15053;48.618;10.024;2023-05-17T03:59:22;3.90;;;2.00;;
27642;SDS011;15053;48.618;10.024;2023-05-17T04:01:49;4.57;;;1.50;;
27642;SDS011;15053;48.618;10.024;2023-05-17T04:04:15;4.78;;;2.00;;
27642;SDS011;15053;48.618;10.024;2023-05-17T04:06:42;6.28;;;1.92;;
27642;SDS011;15053;48.618;10.024;2023-05-17T04:09:08;7.85;;;3.03;;
27642;SDS011;15053;48.618;10.024;2023-05-17T04:11:37;3.33;;;2.05;;
27642;SDS011;15053;48.618;10.024;2023-05-17T04:14:05;5.82;;;2.00;;
27642;SDS011;15053;48.618;10.024;2023-05-17T04:16:32;6.05;;;1.90;;
27642;SDS011;15053;48.618;10.024;2023-05-17T04:18:59;6.57;;;1.80;;
27642;SDS011;15053;48.618;10.024;2023-05-17T04:21:27;3.92;;;1.65;;
27642;SDS011;15053;48.618;10.024;2023-05-17T04:23:54;3.45;;;1.83;;
27642;SDS011;15053;48.618;10.024;2023-05-17T04:26:21;4.50;;;2.00;;
27642;SDS011;15053;48.618;10.024;2023-05-17T04:28:48;4.03;;;1.73;;
27642;SDS011;15053;48.618;10.024;2023-05-17T04:31:15;6.75;;;2.60;;
27642;SDS011;15053;48.618;10.024;2023-05-17T04:33:43;6.45;;;2.40;;
27642;SDS011;15053;48.618;10.024;2023-05-17T04:36:10;6.50;;;2.42;;
27642;SDS011;15053;48.618;10.024;2023-05-17T04:38:38;5.00;;;1.88;;
27642;SDS011;15053;48.618;10.024;2023-05-17T04:41:06;8.32;;;2.40;;
27642;SDS011;15053;48.618;10.024;2023-05-17T04:43:36;4.07;;;2.10;;
27642;SDS011;15053;48.618;10.024;2023-05-17T04:46:07;8.02;;;2.17;;
27642;SDS011;15053;48.618;10.024;2023-05-17T04:48:34;5.53;;;1.83;;
27642;SDS011;15053;48.618;10.024;2023-05-17T04:51:01;6.72;;;2.13;;
27642;SDS011;15053;48.618;10.024;2023-05-17T04:53:30;5.30;;;1.92;;
27642;SDS011;15053;48.618;10.024;2023-05-17T04:55:59;5.18;;;1.98;;
27642;SDS011;15053;48.618;10.024;2023-05-17T04:58:26;13.75;;;3.00;;
27642;SDS011;15053;48.618;10.024;2023-05-17T05:00:56;7.13;;;2.13;;
27642;SDS011;15053;48.618;10.024;2023-05-17T05:03:23;4.90;;;2.15;;
27642;SDS011;15053;48.618;10.024;2023-05-17T05:05:50;7.05;;;2.40;;
27642;SDS011;15053;48.618;10.024;2023-05-17T05:08:16;7.47;;;2.17;;
27642;SDS011;15053;48.618;10.024;2023-05-17T05:10:44;5.32;;;1.80;;
27642;SDS011;15053;48.618;10.024;2023-05-17T05:13:14;7.75;;;2.83;;
27642;SDS011;15053;48.618;10.024;2023-05-17T05:15:40;8.77;;;2.10;;
27642;SDS011;15053;48.618;10.024;2023-05-17T05:18:07;6.95;;;2.05;;
27642;SDS011;15053;48.618;10.024;2023-05-17T05:20:34;6.38;;;2.80;;
27642;SDS011;15053;48.618;10.024;2023-05-17T05:23:03;6.25;;;2.28;;
27642;SDS011;15053;48.618;10.024;2023-05-17T05:25:31;4.93;;;2.08;;
27642;SDS011;15053;48.618;10.024;2023-05-17T05:28:00;4.60;;;2.08;;
27642;SDS011;15053;48.618;10.024;2023-05-17T05:30:28;12.52;;;2.58;;
27642;SDS011;15053;48.618;10.024;2023-05-17T05:32:55;7.10;;;2.17;;
27642;SDS011;15053;48.618;10.024;2023-05-17T05:35:22;3.10;;;1.83;;
27642;SDS011;15053;48.618;10.024;2023-05-17T05:37:56;8.68;;;3.13;;
27642;SDS011;15053;48.618;10.024;2023-05-17T05:40:23;5.70;;;2.42;;
27642;SDS011;15053;48.618;10.024;2023-05-17T05:42:50;7.18;;;2.25;;
27642;SDS011;15053;48.618;10.024;2023-05-17T05:45:18;7.10;;;2.50;;
27642;SDS011;15053;48.618;10.024;2023-05-17T05:47:48;4.65;;;1.85;;
27642;SDS011;15053;48.618;10.024;2023-05-17T05:50:14;7.80;;;2.25;;
27642;SDS011;15053;48.618;10.024;2023-05-17T05:52:43;7.93;;;2.10;;
27642;SDS011;15053;48.618;10.024;2023-05-17T05:55:09;6.75;;;3.20;;
27642;SDS011;15053;48.618;10.024;2023-05-17T05:57:36;6.10;;;2.60;;
27642;SDS011;15053;48.618;10.024;2023-05-17T06:00:03;6.57;;;2.63;;
27642;SDS011;15053;48.618;10.024;2023-05-17T06:02:37;9.65;;;2.83;;
27642;SDS011;15053;48.618;10.024;2023-05-17T06:05:04;10.27;;;2.22;;
27642;SDS011;15053;48.618;10.024;2023-05-17T06:07:31;5.28;;;2.50;;
27642;SDS011;15053;48.618;10.024;2023-05-17T06:10:00;5.93;;;2.30;;
27642;SDS011;15053;48.618;10.024;2023-05-17T06:12:27;6.95;;;2.88;;
27642;SDS011;15053;48.618;10.024;2023-05-17T06:14:53;4.82;;;2.60;;
27642;SDS011;15053;48.618;10.024;2023-05-17T06:17:20;8.05;;;2.80;;
27642;SDS011;15053;48.618;10.024;2023-05-17T06:19:46;13.20;;;2.88;;
27642;SDS011;15053;48.618;10.024;2023-05-17T06:22:14;7.18;;;2.30;;
27642;SDS011;15053;48.618;10.024;2023-05-17T06:24:41;11.55;;;2.60;;
27642;SDS011;15053;48.618;10.024;2023-05-17T06:27:07;12.77;;;2.60;;
27642;SDS011;15053;48.618;10.024;2023-05-17T06:29:34;7.45;;;3.00;;
27642;SDS011;15053;48.618;10.024;2023-05-17T06:32:01;6.70;;;2.60;;
27642;SDS011;15053;48.618;10.024;2023-05-17T06:34:28;6.65;;;2.75;;
27642;SDS011;15053;48.618;10.024;2023-05-17T06:36:54;8.95;;;3.10;;
27642;SDS011;15053;48.618;10.024;2023-05-17T06:39:21;14.38;;;3.50;;
27642;SDS011;15053;48.618;10.024;2023-05-17T06:41:47;9.43;;;3.35;;
27642;SDS011;15053;48.618;10.024;2023-05-17T06:44:15;6.63;;;2.72;;
27642;SDS011;15053;48.618;10.024;2023-05-17T06:46:42;12.73;;;3.42;;
27642;SDS011;15053;48.618;10.024;2023-05-17T06:49:09;6.32;;;2.20;;
27642;SDS011;15053;48.618;10.024;2023-05-17T06:51:35;7.53;;;2.90;;
27642;SDS011;15053;48.618;10.024;2023-05-17T06:54:02;10.05;;;3.58;;
27642;SDS011;15053;48.618;10.024;2023-05-17T06:56:28;11.23;;;2.95;;
27642;SDS011;15053;48.618;10.024;2023-05-17T06:58:55;5.53;;;2.80;;
27642;SDS011;15053;48.618;10.024;2023-05-17T07:01:21;9.48;;;3.42;;
27642;SDS011;15053;48.618;10.024;2023-05-17T07:03:48;6.63;;;2.65;;
27642;SDS011;15053;48.618;10.024;2023-05-17T07:06:15;5.47;;;2.45;;
27642;SDS011;15053;48.618;10.024;2023-05-17T07:08:41;11.93;;;3.00;;
27642;SDS011;15053;48.618;10.024;2023-05-17T07:11:08;20.25;;;4.00;;
27642;SDS011;15053;48.618;10.024;2023-05-17T07:13:34;13.25;;;2.83;;
27642;SDS011;15053;48.618;10.024;2023-05-17T07:16:01;5.90;;;2.75;;
27642;SDS011;15053;48.618;10.024;2023-05-17T07:18:27;10.27;;;3.15;;
27642;SDS011;15053;48.618;10.024;2023-05-17T07:20:54;8.27;;;2.78;;
27642;SDS011;15053;48.618;10.024;2023-05-17T07:23:20;8.13;;;3.13;;
27642;SDS011;15053;48.618;10.024;2023-05-17T07:25:47;6.70;;;3.08;;
27642;SDS011;15053;48.618;10.024;2023-05-17T07:28:13;12.50;;;3.30;;
27642;SDS011;15053;48.618;10.024;2023-05-17T07:30:40;7.20;;;2.53;;
27642;SDS011;15053;48.618;10.024;2023-05-17T07:33:06;8.93;;;3.50;;
27642;SDS011;15053;48.618;10.024;2023-05-17T07:35:33;8.88;;;3.20;;
27642;SDS011;15053;48.618;10.024;2023-05-17T07:37:59;9.68;;;3.22;;
27642;SDS011;15053;48.618;10.024;2023-05-17T07:40:26;6.72;;;2.97;;
27642;SDS011;15053;48.618;10.024;2023-05-17T07:42:52;6.57;;;2.58;;
27642;SDS011;15053;48.618;10.024;2023-05-17T07:45:19;8.10;;;2.90;;
27642;SDS011;15053;48.618;10.024;2023-05-17T07:47:46;8.27;;;2.83;;
27642;SDS011;15053;48.618;10.024;2023-05-17T07:50:12;12.75;;;4.00;;
27642;SDS011;15053;48.618;10.024;2023-05-17T07:52:39;11.20;;;3.53;;
27642;SDS011;15053;48.618;10.024;2023-05-17T07:55:05;7.13;;;2.75;;
27642;SDS011;15053;48.618;10.024;2023-05-17T07:57:33;4.07;;;2.42;;
27642;SDS011;15053;48.618;10.024;2023-05-17T08:00:02;7.32;;;2.80;;
27642;SDS011;15053;48.618;10.024;2023-05-17T08:02:36;6.78;;;3.20;;
27642;SDS011;15053;48.618;10.024;2023-05-17T08:05:03;7.82;;;2.92;;
27642;SDS011;15053;48.618;10.024;2023-05-17T08:07:30;8.75;;;2.83;;
27642;SDS011;15053;48.618;10.024;2023-05-17T08:09:57;11.57;;;2.80;;
27642;SDS011;15053;48.618;10.024;2023-05-17T08:12:23;7.78;;;3.53;;
27642;SDS011;15053;48.618;10.024;2023-05-17T08:14:50;6.63;;;2.40;;
27642;SDS011;15053;48.618;10.024;2023-05-17T08:17:17;6.15;;;2.78;;
27642;SDS011;15053;48.618;10.024;2023-05-17T08:19:43;7.03;;;2.83;;
27642;SDS011;15053;48.618;10.024;2023-05-17T08:22:10;9.25;;;2.88;;
27642;SDS011;15053;48.618;10.024;2023-05-17T08:24:36;8.45;;;3.03;;
27642;SDS011;15053;48.618;10.024;2023-05-17T08:27:03;7.85;;;3.03;;
27642;SDS011;15053;48.618;10.024;2023-05-17T08:29:31;13.27;;;3.15;;
27642;SDS011;15053;48.618;10.024;2023-05-17T08:31:57;6.32;;;2.90;;
27642;SDS011;15053;48.618;10.024;2023-05-17T08:34:24;7.88;;;3.38;;
27642;SDS011;15053;48.618;10.024;2023-05-17T08:36:50;8.52;;;2.72;;
27642;SDS011;15053;48.618;10.024;2023-05-17T08:39:18;9.50;;;3.53;;
27642;SDS011;15053;48.618;10.024;2023-05-17T08:41:46;7.50;;;3.17;;
27642;SDS011;15053;48.618;10.024;2023-05-17T08:44:14;6.00;;;3.20;;
27642;SDS011;15053;48.618;10.024;2023-05-17T08:46:42;10.57;;;4.38;;
27642;SDS011;15053;48.618;10.024;2023-05-17T08:49:09;8.98;;;3.20;;
27642;SDS011;15053;48.618;10.024;2023-05-17T08:51:41;10.88;;;3.35;;
27642;SDS011;15053;48.618;10.024;2023-05-17T08:54:08;8.68;;;3.20;;
27642;SDS011;15053;48.618;10.024;2023-05-17T08:56:35;5.15;;;3.03;;
27642;SDS011;15053;48.618;10.024;2023-05-17T08:59:04;9.10;;;3.55;;
27642;SDS011;15053;48.618;10.024;2023-05-17T09:01:33;8.65;;;3.10;;
27642;SDS011;15053;48.618;10.024;2023-05-17T09:04:00;8.52;;;3.83;;
27642;SDS011;15053;48.618;10.024;2023-05-17T09:06:26;6.40;;;3.15;;
27642;SDS011;15053;48.618;10.024;2023-05-17T09:08:55;7.38;;;3.25;;
27642;SDS011;15053;48.618;10.024;2023-05-17T09:11:24;8.52;;;3.67;;
27642;SDS011;15053;48.618;10.024;2023-05-17T09:13:53;8.23;;;4.03;;
27642;SDS011;15053;48.618;10.024;2023-05-17T09:16:24;9.00;;;3.72;;
27642;SDS011;15053;48.618;10.024;2023-05-17T09:18:53;7.07;;;3.03;;
27642;SDS011;15053;48.618;10.024;2023-05-17T09:21:22;6.90;;;3.38;;
27642;SDS011;15053;48.618;10.024;2023-05-17T09:23:52;6.30;;;3.05;;
27642;SDS011;15053;48.618;10.024;2023-05-17T09:26:42;7.35;;;3.42;;
27642;SDS011;15053;48.618;10.024;2023-05-17T09:29:11;4.85;;;2.78;;
27642;SDS011;15053;48.618;10.024;2023-05-17T09:31:39;9.90;;;3.28;;
27642;SDS011;15053;48.618;10.024;2023-05-17T09:34:06;4.60;;;3.08;;
27642;SDS011;15053;48.618;10.024;2023-05-17T09:36:36;9.00;;;3.67;;
27642;SDS011;15053;48.618;10.024;2023-05-17T09:39:06;7.93;;;3.85;;
27642;SDS011;15053;48.618;10.024;2023-05-17T09:41:42;8.05;;;3.80;;
27642;SDS011;15053;48.618;10.024;2023-05-17T09:44:12;9.27;;;3.63;;
27642;SDS011;15053;48.618;10.024;2023-05-17T09:46:46;9.95;;;3.58;;
27642;SDS011;15053;48.618;10.024;2023-05-17T09:49:14;9.10;;;4.30;;
27642;SDS011;15053;48.618;10.024;2023-05-17T09:51:42;9.13;;;3.65;;
27642;SDS011;15053;48.618;10.024;2023-05-17T09:54:10;6.22;;;3.65;;
27642;SDS011;15053;48.618;10.024;2023-05-17T09:56:37;12.23;;;4.05;;
27642;SDS011;15053;48.618;10.024;2023-05-17T09:59:09;14.43;;;4.55;;
27642;SDS011;15053;48.618;10.024;2023-05-17T10:01:38;11.00;;;3.80;;
27642;SDS011;15053;48.618;10.024;2023-05-17T10:04:09;9.43;;;3.50;;
27642;SDS011;15053;48.618;10.024;2023-05-17T10:06:37;8.93;;;3.90;;
27642;SDS011;15053;48.618;10.024;2023-05-17T10:09:17;8.63;;;3.10;;
27642;SDS011;15053;48.618;10.024;2023-05-17T10:11:46;5.07;;;3.25;;
27642;SDS011;15053;48.618;10.024;2023-05-17T10:14:17;8.35;;;3.00;;
27642;SDS011;15053;48.618;10.024;2023-05-17T10:16:49;7.95;;;3.60;;
27642;SDS011;15053;48.618;10.024;2023-05-17T10:19:17;5.97;;;2.90;;
27642;SDS011;15053;48.618;10.024;2023-05-17T10:21:49;7.97;;;2.85;;
27642;SDS011;15053;48.618;10.024;2023-05-17T10:24:16;8.60;;;3.17;;
27642;SDS011;15053;48.618;10.024;2023-05-17T10:26:46;4.25;;;2.53;;
27642;SDS011;15053;48.618;10.024;2023-05-17T10:29:15;6.15;;;3.30;;
27642;SDS011;15053;48.618;10.024;2023-05-17T10:31:42;5.82;;;2.88;;
27642;SDS011;15053;48.618;10.024;2023-05-17T10:34:09;4.68;;;3.00;;
27642;SDS011;15053;48.618;10.024;2023-05-17T10:36:37;7.82;;;2.95;;
27642;SDS011;15053;48.618;10.024;2023-05-17T10:39:04;5.78;;;3.42;;
27642;SDS011;15053;48.618;10.024;2023-05-17T10:41:33;19.55;;;6.75;;
27642;SDS011;15053;48.618;10.024;2023-05-17T10:44:02;5.63;;;3.28;;
27642;SDS011;15053;48.618;10.024;2023-05-17T10:46:30;5.32;;;3.03;;
27642;SDS011;15053;48.618;10.024;2023-05-17T10:48:57;5.45;;;3.40;;
27642;SDS011;15053;48.618;10.024;2023-05-17T10:51:31;10.20;;;3.80;;
27642;SDS011;15053;48.618;10.024;2023-05-17T10:54:02;9.15;;;3.35;;
27642;SDS011;15053;48.618;10.024;2023-05-17T10:56:30;5.93;;;2.97;;
27642;SDS011;15053;48.618;10.024;2023-05-17T10:59:16;9.55;;;3.50;;
27642;SDS011;15053;48.618;10.024;2023-05-17T11:01:58;6.28;;;3.72;;
27642;SDS011;15053;48.618;10.024;2023-05-17T11:04:32;6.97;;;3.30;;
27642;SDS011;15053;48.618;10.024;2023-05-17T11:09:43;7.82;;;3.47;;
27642;SDS011;15053;48.618;10.024;2023-05-17T11:12:10;9.20;;;4.15;;
27642;SDS011;15053;48.618;10.024;2023-05-17T11:17:14;5.50;;;3.38;;
27642;SDS011;15053;48.618;10.024;2023-05-17T11:22:49;7.78;;;4.20;;
27642;SDS011;15053;48.618;10.024;2023-05-17T11:25:20;9.73;;;3.70;;
27642;SDS011;15053;48.618;10.024;2023-05-17T11:27:48;8.02;;;3.80;;
27642;SDS011;15053;48.618;10.024;2023-05-17T11:30:17;4.85;;;3.33;;
27642;SDS011;15053;48.618;10.024;2023-05-17T11:32:51;9.65;;;4.05;;
27642;SDS011;15053;48.618;10.024;2023-05-17T11:35:22;9.57;;;3.60;;
27642;SDS011;15053;48.618;10.024;2023-05-17T11:37:52;6.30;;;3.78;;
27642;SDS011;15053;48.618;10.024;2023-05-17T11:40:36;8.45;;;3.47;;
27642;SDS011;15053;48.618;10.024;2023-05-17T11:43:16;10.05;;;3.70;;
27642;SDS011;15053;48.618;10.024;2023-05-17T11:45:45;6.95;;;3.53;;
27642;SDS011;15053;48.618;10.024;2023-05-17T11:48:19;10.10;;;4.13;;
27642;SDS011;15053;48.618;10.024;2023-05-17T11:50:48;8.43;;;4.20;;
27642;SDS011;15053;48.618;10.024;2023-05-17T11:53:16;10.50;;;3.60;;
27642;SDS011;15053;48.618;10.024;2023-05-17T11:55:43;5.50;;;3.60;;
27642;SDS011;15053;48.618;10.024;2023-05-17T11:58:16;6.70;;;3.75;;
27642;SDS011;15053;48.618;10.024;2023-05-17T12:00:44;8.10;;;4.20;;
27642;SDS011;15053;48.618;10.024;2023-05-17T12:03:20;7.32;;;4.18;;
27642;SDS011;15053;48.618;10.024;2023-05-17T12:05:49;9.32;;;4.32;;
27642;SDS011;15053;48.618;10.024;2023-05-17T12:08:17;13.15;;;4.00;;
27642;SDS011;15053;48.618;10.024;2023-05-17T12:10:49;11.82;;;3.72;;
27642;SDS011;15053;48.618;10.024;2023-05-17T12:13:18;7.32;;;3.90;;
27642;SDS011;15053;48.618;10.024;2023-05-17T12:15:55;10.23;;;4.30;;
27642;SDS011;15053;48.618;10.024;2023-05-17T12:18:37;9.20;;;4.40;;
27642;SDS011;15053;48.618;10.024;2023-05-17T12:21:06;7.28;;;4.45;;
27642;SDS011;15053;48.618;10.024;2023-05-17T12:23:35;10.80;;;4.85;;
27642;SDS011;15053;48.618;10.024;2023-05-17T12:26:04;10.68;;;4.70;;
27642;SDS011;15053;48.618;10.024;2023-05-17T12:28:45;7.43;;;3.58;;
27642;SDS011;15053;48.618;10.024;2023-05-17T12:31:18;8.40;;;4.53;;
27642;SDS011;15053;48.618;10.024;2023-05-17T12:33:50;7.68;;;4.35;;
27642;SDS011;15053;48.618;10.024;2023-05-17T12:36:16;6.90;;;4.25;;
27642;SDS011;15053;48.618;10.024;2023-05-17T12:38:44;7.75;;;3.83;;
27642;SDS011;15053;48.618;10.024;2023-05-17T12:41:13;9.13;;;4.13;;
27642;SDS011;15053;48.618;10.024;2023-05-17T12:43:42;8.32;;;3.75;;
27642;SDS011;15053;48.618;10.024;2023-05-17T12:46:16;10.90;;;4.40;;
27642;SDS011;15053;48.618;10.024;2023-05-17T12:48:44;9.20;;;4.15;;
27642;SDS011;15053;48.618;10.024;2023-05-17T12:51:12;7.43;;;4.18;;
27642;SDS011;15053;48.618;10.024;2023-05-17T12:53:41;8.73;;;4.20;;
27642;SDS011;15053;48.618;10.024;2023-05-17T12:56:19;9.07;;;4.15;;
27642;SDS011;15053;48.618;10.024;2023-05-17T13:01:49;8.25;;;4.35;;
27642;SDS011;15053;48.618;10.024;2023-05-17T13:04:17;9.85;;;4.63;;
27642;SDS011;15053;48.618;10.024;2023-05-17T13:06:52;9.43;;;4.70;;
27642;SDS011;15053;48.618;10.024;2023-05-17T13:09:20;10.77;;;4.93;;
27642;SDS011;15053;48.618;10.024;2023-05-17T13:11:52;12.43;;;4.50;;
27642;SDS011;15053;48.618;10.024;2023-05-17T13:17:09;7.35;;;4.90;;
27642;SDS011;15053;48.618;10.024;2023-05-17T13:19:37;8.82;;;4.30;;
27642;SDS011;15053;48.618;10.024;2023-05-17T13:22:05;9.70;;;5.20;;
27642;SDS011;15053;48.618;10.024;2023-05-17T13:24:35;9.60;;;4.82;;
27642;SDS011;15053;48.618;10.024;2023-05-17T13:27:03;8.50;;;4.70;;
27642;SDS011;15053;48.618;10.024;2023-05-17T13:29:31;8.32;;;4.28;;
27642;SDS011;15053;48.618;10.024;2023-05-17T13:32:05;9.20;;;4.20;;
27642;SDS011;15053;48.618;10.024;2023-05-17T13:34:33;10.73;;;5.00;;
27642;SDS011;15053;48.618;10.024;2023-05-17T13:36:59;10.63;;;5.50;;
27642;SDS011;15053;48.618;10.024;2023-05-17T13:39:26;9.65;;;4.68;;
27642;SDS011;15053;48.618;10.024;2023-05-17T13:41:53;10.98;;;5.00;;
27642;SDS011;15053;48.618;10.024;2023-05-17T13:44:19;11.57;;;5.45;;
27642;SDS011;15053;48.618;10.024;2023-05-17T13:46:46;9.18;;;4.72;;
27642;SDS011;15053;48.618;10.024;2023-05-17T13:49:13;8.43;;;4.50;;
27642;SDS011;15053;48.618;10.024;2023-05-17T13:51:39;11.60;;;4.43;;
27642;SDS011;15053;48.618;10.024;2023-05-17T13:54:06;8.90;;;4.60;;
27642;SDS011;15053;48.618;10.024;2023-05-17T13:56:33;10.45;;;4.18;;
27642;SDS011;15053;48.618;10.024;2023-05-17T13:59:00;7.50;;;4.13;;
27642;SDS011;15053;48.618;10.024;2023-05-17T14:01:26;10.35;;;4.55;;
27642;SDS011;15053;48.618;10.024;2023-05-17T14:03:53;10.10;;;5.22;;
27642;SDS011;15053;48.618;10.024;2023-05-17T14:06:20;10.05;;;4.93;;
27642;SDS011;15053;48.618;10.024;2023-05-17T14:08:47;7.57;;;4.28;;
27642;SDS011;15053;48.618;10.024;2023-05-17T14:11:14;6.63;;;3.70;;
27642;SDS011;15053;48.618;10.024;2023-05-17T14:13:41;7.53;;;3.83;;
27642;SDS011;15053;48.618;10.024;2023-05-17T14:16:08;11.68;;;5.05;;
27642;SDS011;15053;48.618;10.024;2023-05-17T14:18:34;10.00;;;5.57;;
27642;SDS011;15053;48.618;10.024;2023-05-17T14:21:01;9.20;;;4.95;;
27642;SDS011;15053;48.618;10.024;2023-05-17T14:23:28;9.50;;;4.97;;
27642;SDS011;15053;48.618;10.024;2023-05-17T14:25:55;6.97;;;4.35;;
27642;SDS011;15053;48.618;10.024;2023-05-17T14:28:23;7.43;;;4.40;;
27642;SDS011;15053;48.618;10.024;2023-05-17T14:30:49;7.88;;;3.80;;
27642;SDS011;15053;48.618;10.024;2023-05-17T14:33:17;9.05;;;4.28;;
27642;SDS011;15053;48.618;10.024;2023-05-17T14:35:43;9.95;;;4.13;;
27642;SDS011;15053;48.618;10.024;2023-05-17T14:38:10;10.85;;;4.25;;
27642;SDS011;15053;48.618;10.024;2023-05-17T14:40:36;8.10;;;3.83;;
27642;SDS011;15053;48.618;10.024;2023-05-17T14:43:03;12.73;;;4.82;;
27642;SDS011;15053;48.618;10.024;2023-05-17T14:45:30;8.10;;;4.53;;
27642;SDS011;15053;48.618;10.024;2023-05-17T14:47:57;8.75;;;4.32;;
27642;SDS011;15053;48.618;10.024;2023-05-17T14:50:23;8.70;;;4.75;;
27642;SDS011;15053;48.618;10.024;2023-05-17T14:52:50;9.48;;;4.35;;
27642;SDS011;15053;48.618;10.024;2023-05-17T14:55:16;12.43;;;5.20;;
27642;SDS011;15053;48.618;10.024;2023-05-17T14:57:43;7.13;;;4.38;;
27642;SDS011;15053;48.618;10.024;2023-05-17T15:00:11;9.68;;;4.63;;
27642;SDS011;15053;48.618;10.024;2023-05-17T15:02:38;9.73;;;4.70;;
27642;SDS011;15053;48.618;10.024;2023-05-17T15:05:05;8.85;;;4.28;;